Clarence, Missouri
Current Conditions -  °F | °C
As of 12:55 AM on Monday 22 Dec 2014 (Local Time) from KIRK Reporting Station
Overcast Overcast  
Wind Chill: 33°   Ceiling: 3400
Heat Index: 39°   Visibility: 9mi
Dew Point: 36°   Wind: 9mph
Humidity: 89%   Direction: 140°SE
Pressure: 29.81"   Gusts: NA
Location:  39.74°N, 92.26°W
Report Text: KIRK 220655Z AUTO 14008KT 9SM BKN034 OVC043 04/02 A2981 RMK AO2 SLP102 T00390022
Loading
Personal Weather Stations






























Interactive Weather Map New forecast layout! Learn more

10-Day Weather Forecast

Advertisements
Track Severe Weather on mobile